createdAt,value
2023-11-21T00:00:30.930Z,22.98
2023-11-21T00:02:58.968Z,26.98
2023-11-21T00:05:26.972Z,27.38
2023-11-21T00:07:56.294Z,26.08
2023-11-21T00:10:24.345Z,19.67
2023-11-21T00:12:52.297Z,19.42
2023-11-21T00:15:20.181Z,26.05
2023-11-21T00:17:48.273Z,40.75
2023-11-21T00:20:16.235Z,25.92
2023-11-21T00:22:44.558Z,23.20
2023-11-21T00:25:16.236Z,19.75
2023-11-21T00:27:44.262Z,23.33
2023-11-21T00:30:14.100Z,21.38
2023-11-21T00:32:42.175Z,19.13
2023-11-21T00:35:10.419Z,20.85
2023-11-21T00:37:40.082Z,26.92
2023-11-21T00:40:08.864Z,25.83
2023-11-21T00:42:38.256Z,22.42
2023-11-21T00:45:07.289Z,27.15
2023-11-21T00:47:34.400Z,21.08
2023-11-21T00:50:02.904Z,23.73
2023-11-21T00:52:31.770Z,29.58
2023-11-21T00:55:00.304Z,24.60
2023-11-21T00:57:28.340Z,18.40
2023-11-21T00:59:57.568Z,24.02
2023-11-21T01:02:26.523Z,25.25
2023-11-21T01:04:55.156Z,25.25
2023-11-21T01:07:23.658Z,21.75
2023-11-21T01:09:52.368Z,20.77
2023-11-21T01:12:20.336Z,32.25
2023-11-21T01:14:48.394Z,31.17
2023-11-21T01:17:17.897Z,34.63
2023-11-21T01:19:46.115Z,22.65
2023-11-21T01:22:14.207Z,30.27
2023-11-21T01:24:42.166Z,29.88
2023-11-21T01:27:10.139Z,29.38
2023-11-21T01:29:38.211Z,29.58
2023-11-21T01:32:09.229Z,33.60
2023-11-21T01:34:39.037Z,32.30
2023-11-21T01:37:07.674Z,33.05
2023-11-21T01:39:35.581Z,33.40
2023-11-21T01:42:03.590Z,28.02
2023-11-21T01:44:31.575Z,38.67
2023-11-21T01:46:59.553Z,37.47
2023-11-21T01:49:27.887Z,34.30
2023-11-21T01:51:57.861Z,35.17
2023-11-21T01:54:25.798Z,35.55
2023-11-21T01:56:53.797Z,42.08
2023-11-21T01:59:22.471Z,34.78
2023-11-21T02:01:51.508Z,35.53
2023-11-21T02:04:19.988Z,35.45
2023-11-21T02:06:47.927Z,30.45
2023-11-21T02:09:17.227Z,34.30
2023-11-21T02:11:45.364Z,33.25
2023-11-21T02:14:15.025Z,33.30
2023-11-21T02:16:45.422Z,38.75
2023-11-21T02:19:18.524Z,32.67
2023-11-21T02:21:47.550Z,38.92
2023-11-21T02:24:16.877Z,34.90
2023-11-21T02:26:44.943Z,39.25
2023-11-21T02:29:14.255Z,38.25
2023-11-21T02:31:49.097Z,36.85
2023-11-21T02:34:18.094Z,39.40
2023-11-21T02:36:46.641Z,36.33
2023-11-21T02:39:14.822Z,33.92
2023-11-21T02:41:44.289Z,33.97
2023-11-21T02:44:12.260Z,33.47
2023-11-21T02:46:40.522Z,33.50
2023-11-21T02:49:11.322Z,39.38
2023-11-21T02:51:39.987Z,32.67
2023-11-21T02:54:09.289Z,37.97
2023-11-21T02:56:37.244Z,37.67
2023-11-21T02:59:06.658Z,31.73
2023-11-21T03:01:34.677Z,38.20
2023-11-21T03:04:02.820Z,33.50
2023-11-21T03:06:31.062Z,38.92
2023-11-21T03:08:59.162Z,34.30
2023-11-21T03:11:27.227Z,34.25
2023-11-21T03:13:55.274Z,35.17
2023-11-21T03:16:24.689Z,36.13
2023-11-21T03:18:53.701Z,33.95
2023-11-21T03:21:21.724Z,33.33
2023-11-21T03:23:49.855Z,35.75
2023-11-21T03:26:17.980Z,37.25
2023-11-21T03:28:47.252Z,35.67
2023-11-21T03:31:17.237Z,38.47
2023-11-21T03:33:46.604Z,38.63
2023-11-21T03:36:15.725Z,49.33
2023-11-21T03:38:43.856Z,43.38
2023-11-21T03:41:12.180Z,41.85
2023-11-21T03:43:40.104Z,45.20
2023-11-21T03:46:08.425Z,45.55
2023-11-21T03:48:36.635Z,48.58
2023-11-21T03:51:06.588Z,50.47
2023-11-21T03:56:04.590Z,46.92
2023-11-21T03:58:32.503Z,41.53
2023-11-21T04:01:00.457Z,46.00
2023-11-21T04:03:28.591Z,44.15
2023-11-21T04:05:56.632Z,44.50
2023-11-21T04:08:27.062Z,47.45
2023-11-21T04:10:56.021Z,44.03
2023-11-21T04:13:24.105Z,45.50
2023-11-21T04:15:52.288Z,55.58
2023-11-21T04:18:20.239Z,52.78
2023-11-21T04:20:48.166Z,54.47
2023-11-21T04:23:16.212Z,59.95
2023-11-21T04:25:45.464Z,54.20
2023-11-21T04:28:13.369Z,62.25
2023-11-21T04:30:41.933Z,49.65
2023-11-21T04:33:12.913Z,58.55
2023-11-21T04:35:40.825Z,51.13
2023-11-21T04:38:08.801Z,54.25
2023-11-21T04:40:36.742Z,51.60
2023-11-21T04:43:06.226Z,67.13
2023-11-21T04:45:34.779Z,63.70
2023-11-21T04:48:02.887Z,57.72
2023-11-21T04:50:30.866Z,51.63
2023-11-21T04:52:58.883Z,61.05
2023-11-21T04:55:29.218Z,60.47
2023-11-21T04:57:57.214Z,63.25
2023-11-21T05:00:26.625Z,57.92
2023-11-21T05:02:54.828Z,62.17
2023-11-21T05:05:23.501Z,72.38
2023-11-21T05:07:51.513Z,107.78
2023-11-21T05:10:19.690Z,85.32
2023-11-21T05:12:47.689Z,123.13
2023-11-21T05:15:16.622Z,83.40
2023-11-21T05:17:46.700Z,86.32
2023-11-21T05:20:17.436Z,66.13
2023-11-21T05:22:45.414Z,55.63
2023-11-21T05:25:13.819Z,50.33
2023-11-21T05:27:41.768Z,44.67
2023-11-21T05:30:13.895Z,66.47
2023-11-21T05:32:43.473Z,52.10
2023-11-21T05:35:16.947Z,63.60
2023-11-21T05:37:45.473Z,67.95
2023-11-21T05:40:13.780Z,63.00
2023-11-21T05:42:42.123Z,60.45
2023-11-21T05:45:11.985Z,51.90
2023-11-21T05:47:41.763Z,48.47
2023-11-21T05:50:13.082Z,51.60
2023-11-21T05:52:42.851Z,44.40
2023-11-21T05:55:10.810Z,46.58
2023-11-21T05:57:39.875Z,42.97
2023-11-21T06:00:12.696Z,45.33
2023-11-21T06:02:41.337Z,48.20
2023-11-21T06:05:09.918Z,46.15
2023-11-21T06:07:38.905Z,46.40
2023-11-21T06:10:12.184Z,48.38
2023-11-21T06:12:41.452Z,42.65
2023-11-21T06:15:10.249Z,52.45
2023-11-21T06:17:38.538Z,45.33
2023-11-21T06:20:10.408Z,41.42
2023-11-21T06:22:38.604Z,47.45
2023-11-21T06:25:09.475Z,48.63
2023-11-21T06:27:39.432Z,42.05
2023-11-21T06:30:08.121Z,54.20
2023-11-21T06:32:37.037Z,50.60
2023-11-21T06:35:05.330Z,49.63
2023-11-21T06:37:33.649Z,48.70
2023-11-21T06:40:02.023Z,55.80
2023-11-21T06:42:31.407Z,56.88
2023-11-21T06:44:59.860Z,50.85
2023-11-21T06:47:29.058Z,51.33
2023-11-21T06:49:57.136Z,52.33
2023-11-21T06:52:25.094Z,50.97
2023-11-21T06:54:52.975Z,55.75
2023-11-21T06:57:20.935Z,59.03
2023-11-21T06:59:51.546Z,47.90
2023-11-21T07:02:20.435Z,59.25
2023-11-21T07:04:48.586Z,58.22
2023-11-21T07:07:16.549Z,56.53
2023-11-21T07:09:44.440Z,58.60
2023-11-21T07:12:12.484Z,56.13
2023-11-21T07:14:44.248Z,57.03
2023-11-21T07:17:13.849Z,52.92
2023-11-21T07:19:42.733Z,54.58
2023-11-21T07:22:11.854Z,58.42
2023-11-21T07:24:39.801Z,60.70
2023-11-21T07:27:07.856Z,71.38
2023-11-21T07:29:35.794Z,74.00
2023-11-21T07:32:03.882Z,48.17
2023-11-21T07:34:33.325Z,36.53
2023-11-21T07:37:01.310Z,29.27
2023-11-21T07:39:29.282Z,20.52
2023-11-21T07:41:57.230Z,20.10
2023-11-21T07:44:25.155Z,22.58
2023-11-21T07:46:53.136Z,18.75
2023-11-21T07:49:22.279Z,18.35
2023-11-21T07:51:51.644Z,17.50
2023-11-21T07:54:19.532Z,19.45
2023-11-21T07:56:47.462Z,19.83
2023-11-21T07:59:15.358Z,23.52
2023-11-21T08:01:44.401Z,21.73
2023-11-21T08:04:12.543Z,20.70
2023-11-21T08:06:40.539Z,19.85
2023-11-21T08:09:10.280Z,26.65
2023-11-21T08:11:40.298Z,26.48
2023-11-21T08:14:08.342Z,19.75
2023-11-21T08:16:36.433Z,21.40
2023-11-21T08:19:04.813Z,21.42
2023-11-21T08:21:32.703Z,23.63
2023-11-21T08:24:01.497Z,22.20
2023-11-21T08:26:30.765Z,26.35
2023-11-21T08:28:58.705Z,24.85
2023-11-21T08:31:27.427Z,28.67
2023-11-21T08:33:56.027Z,26.65
2023-11-21T08:36:25.089Z,31.80
2023-11-21T08:38:54.033Z,29.10
2023-11-21T08:41:22.475Z,25.67
2023-11-21T08:43:52.895Z,27.25
2023-11-21T08:46:21.303Z,28.77
2023-11-21T08:48:53.669Z,29.20
2023-11-21T08:51:21.573Z,24.77
2023-11-21T08:53:49.622Z,29.67
2023-11-21T08:56:17.560Z,30.17
2023-11-21T08:58:45.537Z,27.23
2023-11-21T09:01:14.956Z,27.65
2023-11-21T09:03:44.717Z,30.60
2023-11-21T09:06:15.329Z,31.40
2023-11-21T09:08:44.595Z,157.85
2023-11-21T09:11:12.626Z,25.63
2023-11-21T09:13:40.567Z,30.25
2023-11-21T09:16:08.939Z,17.05
2023-11-21T09:18:38.422Z,15.55
2023-11-21T09:21:06.991Z,13.18
2023-11-21T09:23:34.925Z,14.50
2023-11-21T09:26:02.973Z,15.65
2023-11-21T09:28:30.962Z,14.30
2023-11-21T09:30:58.889Z,16.15
2023-11-21T09:33:26.891Z,14.93
2023-11-21T09:35:56.112Z,16.20
2023-11-21T09:38:24.032Z,13.45
2023-11-21T09:40:53.873Z,15.05
2023-11-21T09:43:23.225Z,11.45
2023-11-21T09:45:56.422Z,14.27
2023-11-21T09:48:26.132Z,14.93
2023-11-21T09:50:55.607Z,14.32
2023-11-21T09:53:25.952Z,13.00
2023-11-21T09:55:54.663Z,12.48
2023-11-21T09:58:23.666Z,12.93
2023-11-21T10:00:54.839Z,14.57
2023-11-21T10:03:22.915Z,14.30
2023-11-21T10:05:52.282Z,13.25
2023-11-21T10:08:21.310Z,15.70
2023-11-21T10:10:53.540Z,13.00
2023-11-21T10:13:21.446Z,11.95
2023-11-21T10:15:51.511Z,15.15
2023-11-21T10:18:19.677Z,12.13
2023-11-21T10:20:53.437Z,12.07
2023-11-21T10:23:23.530Z,13.13
2023-11-21T10:25:54.565Z,13.93
2023-11-21T10:30:51.089Z,15.95
2023-11-21T10:33:19.093Z,12.80
2023-11-21T10:35:49.783Z,14.85
2023-11-21T10:38:17.747Z,14.40
2023-11-21T10:40:47.777Z,13.40
2023-11-21T10:43:17.733Z,11.93
2023-11-21T10:45:45.699Z,13.52
2023-11-21T10:48:16.404Z,16.48
2023-11-21T10:50:44.564Z,13.52
2023-11-21T10:53:14.037Z,16.77
2023-11-21T10:55:42.412Z,14.52
2023-11-21T10:58:12.875Z,20.67
2023-11-21T11:00:42.237Z,12.68
2023-11-21T11:03:15.051Z,13.38
2023-11-21T11:05:46.841Z,15.52
2023-11-21T11:08:19.818Z,19.98
2023-11-21T11:10:48.944Z,14.73
2023-11-21T11:13:17.238Z,16.58
2023-11-21T11:15:49.103Z,18.08
2023-11-21T11:18:17.711Z,17.98
2023-11-21T11:20:47.402Z,20.20
2023-11-21T11:23:29.450Z,21.30
2023-11-21T11:26:05.703Z,21.27
2023-11-21T11:28:40.827Z,23.08
2023-11-21T11:31:17.804Z,28.13
2023-11-21T11:33:47.607Z,26.73
2023-11-21T11:36:18.014Z,27.42
2023-11-21T11:38:47.921Z,30.63
2023-11-21T11:41:25.891Z,21.88
2023-11-21T11:43:53.908Z,27.85
2023-11-21T11:46:42.714Z,30.40
2023-11-21T11:49:11.013Z,29.33
2023-11-21T11:51:37.984Z,25.75
2023-11-21T11:54:08.015Z,24.90
2023-11-21T11:56:38.286Z,28.17
2023-11-21T11:59:10.087Z,25.67
2023-11-21T12:01:39.765Z,25.13
2023-11-21T12:04:32.230Z,21.92
2023-11-21T12:07:04.627Z,25.35
2023-11-21T12:09:33.702Z,22.35
2023-11-21T12:12:02.262Z,23.63
2023-11-21T12:14:30.709Z,23.60
2023-11-21T12:17:01.041Z,25.23
2023-11-21T12:19:29.081Z,29.20
2023-11-21T12:21:57.234Z,29.63
2023-11-21T12:24:25.143Z,30.92
2023-11-21T12:26:53.608Z,27.58
2023-11-21T12:29:21.506Z,30.52
2023-11-21T12:31:51.033Z,32.92
2023-11-21T12:34:20.314Z,34.05
2023-11-21T12:36:48.199Z,31.58
2023-11-21T12:39:16.298Z,31.85
2023-11-21T12:41:44.444Z,34.85
2023-11-21T12:44:16.284Z,29.90
2023-11-21T12:46:46.330Z,25.63
2023-11-21T12:49:18.302Z,25.45
2023-11-21T12:51:47.949Z,24.05
2023-11-21T12:54:16.885Z,28.88
2023-11-21T12:56:48.413Z,27.17
2023-11-21T12:59:17.672Z,25.88
2023-11-21T13:01:46.236Z,20.55
2023-11-21T13:04:14.200Z,17.25
2023-11-21T13:06:42.575Z,18.40
2023-11-21T13:09:13.212Z,20.70
2023-11-21T13:11:42.166Z,25.17
2023-11-21T13:14:09.237Z,18.52
2023-11-21T13:16:38.958Z,23.15
2023-11-21T13:19:06.957Z,28.80
2023-11-21T13:21:36.066Z,22.23
2023-11-21T13:24:04.726Z,23.20
2023-11-21T13:26:34.286Z,28.20
2023-11-21T13:29:02.309Z,31.38
2023-11-21T13:31:33.773Z,29.00
2023-11-21T13:34:06.472Z,25.90
2023-11-21T13:36:36.494Z,24.70
2023-11-21T13:39:08.483Z,26.70
2023-11-21T13:41:39.551Z,30.75
2023-11-21T13:44:17.470Z,26.67
2023-11-21T13:46:47.397Z,26.33
2023-11-21T13:49:16.621Z,26.92
2023-11-21T13:51:46.502Z,26.38
2023-11-21T13:54:14.903Z,23.85
2023-11-21T13:56:46.044Z,29.67
2023-11-21T13:59:21.958Z,23.15
2023-11-21T14:01:57.476Z,24.17
2023-11-21T14:04:54.040Z,27.23
2023-11-21T14:07:32.904Z,22.25
2023-11-21T14:10:01.575Z,24.73
2023-11-21T14:12:37.474Z,23.90
2023-11-21T14:15:10.389Z,20.13
2023-11-21T14:17:42.252Z,21.88
2023-11-21T14:20:16.741Z,22.15
2023-11-21T14:22:45.145Z,17.63
2023-11-21T14:25:13.558Z,17.02
2023-11-21T14:27:42.950Z,20.67
2023-11-21T14:30:13.714Z,19.95
2023-11-21T14:32:41.703Z,19.70
2023-11-21T14:35:10.268Z,19.33
2023-11-21T14:37:38.316Z,23.33
2023-11-21T14:40:08.834Z,17.42
2023-11-21T14:42:39.741Z,19.60
2023-11-21T14:45:13.168Z,18.13
2023-11-21T14:47:45.667Z,17.33
2023-11-21T14:50:27.746Z,21.35
2023-11-21T14:53:00.269Z,17.02
2023-11-21T14:55:33.062Z,15.65
2023-11-21T14:58:05.076Z,19.55
2023-11-21T15:00:43.358Z,15.23
2023-11-21T15:03:12.240Z,15.43
2023-11-21T15:05:41.231Z,18.67
2023-11-21T15:08:21.511Z,14.73
2023-11-21T15:10:50.770Z,15.05
2023-11-21T15:13:18.817Z,14.68
2023-11-21T15:15:49.606Z,14.45
2023-11-21T15:18:18.786Z,14.77
2023-11-21T15:20:46.730Z,14.55
2023-11-21T15:23:14.847Z,18.00
2023-11-21T15:25:42.777Z,14.70
2023-11-21T15:28:10.710Z,21.17
2023-11-21T15:30:38.731Z,14.38
2023-11-21T15:33:09.053Z,13.40
2023-11-21T15:35:39.126Z,12.30
2023-11-21T15:38:09.072Z,14.88
2023-11-21T15:40:37.095Z,14.70
2023-11-21T15:43:05.090Z,12.35
2023-11-21T15:45:33.205Z,13.70
2023-11-21T15:48:02.647Z,14.38
2023-11-21T15:50:32.851Z,12.48
2023-11-21T15:53:00.956Z,11.20
2023-11-21T15:55:28.932Z,12.75
2023-11-21T15:57:56.856Z,12.23
2023-11-21T16:00:25.504Z,12.63
2023-11-21T16:02:55.754Z,13.30
2023-11-21T16:05:26.883Z,11.47
2023-11-21T16:07:56.619Z,14.98
2023-11-21T16:10:24.575Z,15.27
2023-11-21T16:12:52.536Z,17.77
2023-11-21T16:15:21.133Z,15.63
2023-11-21T16:17:49.060Z,13.75
2023-11-21T16:20:17.298Z,13.80
2023-11-21T16:22:46.423Z,15.02
2023-11-21T16:25:15.810Z,15.25
2023-11-21T16:27:44.515Z,13.73
2023-11-21T16:30:13.191Z,15.38
2023-11-21T16:32:41.202Z,15.55
2023-11-21T16:35:11.114Z,15.05
2023-11-21T16:37:39.091Z,16.20
2023-11-21T16:40:09.721Z,16.60
2023-11-21T16:42:39.603Z,16.20
2023-11-21T16:45:09.060Z,16.88
2023-11-21T16:47:37.412Z,16.88
2023-11-21T16:50:05.704Z,16.05
2023-11-21T16:52:33.585Z,16.08
2023-11-21T16:55:00.582Z,13.35
2023-11-21T16:57:28.675Z,17.00
2023-11-21T16:59:58.077Z,16.20
2023-11-21T17:02:26.117Z,15.32
2023-11-21T17:04:54.442Z,14.63
2023-11-21T17:07:24.018Z,16.45
2023-11-21T17:09:52.307Z,18.40
2023-11-21T17:12:19.892Z,19.60
2023-11-21T17:14:50.145Z,16.63
2023-11-21T17:17:19.672Z,18.33
2023-11-21T17:19:47.713Z,17.08
2023-11-21T17:22:16.416Z,19.65
2023-11-21T17:24:45.593Z,16.00
2023-11-21T17:27:13.579Z,16.67
2023-11-21T17:29:41.460Z,17.55
2023-11-21T17:32:10.908Z,16.13
2023-11-21T17:34:40.766Z,18.02
2023-11-21T17:37:08.732Z,15.98
2023-11-21T17:39:36.631Z,15.70
2023-11-21T17:42:04.827Z,15.52
2023-11-21T17:44:32.758Z,14.75
2023-11-21T17:47:03.060Z,18.63
2023-11-21T17:49:31.699Z,15.65
2023-11-21T17:52:02.111Z,15.48
2023-11-21T17:54:30.026Z,14.07
2023-11-21T17:56:58.003Z,16.02
2023-11-21T17:59:25.949Z,21.55
2023-11-21T18:01:54.254Z,17.00
2023-11-21T18:04:23.767Z,15.15
2023-11-21T18:06:52.362Z,16.77
2023-11-21T18:09:21.735Z,15.82
2023-11-21T18:11:49.659Z,15.90
2023-11-21T18:14:17.701Z,17.60
2023-11-21T18:16:45.813Z,15.48
2023-11-21T18:19:13.808Z,13.32
2023-11-21T18:21:42.843Z,16.13
2023-11-21T18:24:11.262Z,14.75
2023-11-21T18:26:40.657Z,14.65
2023-11-21T18:29:09.603Z,17.17
2023-11-21T18:31:38.432Z,15.95
2023-11-21T18:34:07.386Z,14.13
2023-11-21T18:36:35.730Z,13.18
2023-11-21T18:39:03.669Z,14.57
2023-11-21T18:41:32.853Z,14.27
2023-11-21T18:44:02.801Z,12.57
2023-11-21T18:46:31.199Z,14.48
2023-11-21T18:48:59.286Z,17.23
2023-11-21T18:51:27.182Z,12.52
2023-11-21T18:53:55.177Z,12.45
2023-11-21T18:56:25.379Z,17.08
2023-11-21T18:58:53.773Z,14.67
2023-11-21T19:01:29.612Z,15.88
2023-11-21T19:03:58.964Z,15.45
2023-11-21T19:06:27.757Z,16.33
2023-11-21T19:08:56.154Z,16.77
2023-11-21T19:11:24.313Z,26.33
2023-11-21T19:13:54.369Z,30.55
2023-11-21T19:16:23.153Z,22.80
2023-11-21T19:18:52.501Z,18.83
2023-11-21T19:21:20.748Z,20.77
2023-11-21T19:23:49.736Z,21.20
2023-11-21T19:26:17.779Z,19.17
2023-11-21T19:28:46.045Z,21.33
2023-11-21T19:31:17.264Z,16.30
2023-11-21T19:33:45.883Z,23.13
2023-11-21T19:36:15.112Z,19.92
2023-11-21T19:38:43.253Z,18.23
2023-11-21T19:41:14.362Z,20.80
2023-11-21T19:43:42.307Z,17.58
2023-11-21T19:46:10.277Z,21.65
2023-11-21T19:48:38.524Z,23.73
2023-11-21T19:51:06.611Z,21.00
2023-11-21T19:53:37.959Z,18.70
2023-11-21T19:58:35.378Z,24.40
2023-11-21T20:01:03.317Z,18.05
2023-11-21T20:03:33.408Z,24.88
2023-11-21T20:06:02.442Z,26.63
2023-11-21T20:08:31.716Z,31.17
2023-11-21T20:11:01.019Z,26.17
2023-11-21T20:13:29.029Z,22.65
2023-11-21T20:15:56.996Z,22.25
2023-11-21T20:18:25.203Z,23.80
2023-11-21T20:20:53.140Z,23.27
2023-11-21T20:23:22.983Z,24.85
2023-11-21T20:25:51.223Z,23.40
2023-11-21T20:28:20.506Z,22.95
2023-11-21T20:30:48.414Z,20.23
2023-11-21T20:33:16.486Z,22.45
2023-11-21T20:35:44.529Z,21.25
2023-11-21T20:38:13.445Z,28.23
2023-11-21T20:40:41.426Z,25.45
2023-11-21T20:43:10.273Z,21.15
2023-11-21T20:45:40.940Z,26.63
2023-11-21T20:48:09.394Z,24.77
2023-11-21T20:50:37.414Z,24.73
2023-11-21T20:53:08.941Z,29.70
2023-11-21T20:55:36.918Z,21.48
2023-11-21T20:58:04.841Z,26.08
2023-11-21T21:00:32.743Z,24.10
2023-11-21T21:03:02.111Z,26.92
2023-11-21T21:05:30.192Z,27.73
2023-11-21T21:07:59.040Z,24.55
2023-11-21T21:10:27.400Z,25.60
2023-11-21T21:12:56.510Z,26.75
2023-11-21T21:15:24.842Z,27.65
2023-11-21T21:17:52.751Z,27.80
2023-11-21T21:20:22.946Z,21.50
2023-11-21T21:22:52.371Z,19.55
2023-11-21T21:25:20.771Z,24.63
2023-11-21T21:27:49.279Z,23.88
2023-11-21T21:30:17.311Z,24.63
2023-11-21T21:32:45.257Z,25.85
2023-11-21T21:35:13.806Z,22.80
2023-11-21T21:37:44.596Z,21.85
2023-11-21T21:40:12.822Z,28.58
2023-11-21T21:42:40.736Z,25.20
2023-11-21T21:45:09.094Z,21.92
2023-11-21T21:47:37.096Z,21.73
2023-11-21T21:50:05.392Z,32.47
2023-11-21T21:52:36.902Z,19.88
2023-11-21T21:55:06.876Z,19.42
2023-11-21T21:57:34.852Z,19.58
2023-11-21T22:00:02.766Z,19.88
2023-11-21T22:02:39.874Z,20.73
2023-11-21T22:05:10.814Z,22.08
2023-11-21T22:07:39.903Z,17.90
2023-11-21T22:10:09.889Z,19.73
2023-11-21T22:12:40.552Z,19.38
2023-11-21T22:15:09.673Z,20.25
2023-11-21T22:17:38.008Z,21.10
2023-11-21T22:20:06.696Z,18.77
2023-11-21T22:22:34.686Z,17.15
2023-11-21T22:25:04.448Z,20.33
2023-11-21T22:27:33.677Z,20.85
2023-11-21T22:30:01.569Z,19.95
2023-11-21T22:32:29.653Z,21.52
2023-11-21T22:34:57.784Z,23.70
2023-11-21T22:37:25.768Z,17.77
2023-11-21T22:39:53.694Z,18.45
2023-11-21T22:42:21.864Z,19.88
2023-11-21T22:44:51.129Z,19.45
2023-11-21T22:47:22.692Z,18.77
2023-11-21T22:49:50.888Z,18.15
2023-11-21T22:52:18.882Z,20.85
2023-11-21T22:54:46.785Z,19.98
2023-11-21T22:57:15.030Z,16.83
2023-11-21T22:59:42.968Z,18.05
2023-11-21T23:02:12.562Z,22.48
2023-11-21T23:04:40.631Z,20.67
2023-11-21T23:07:08.592Z,18.65
2023-11-21T23:09:36.856Z,17.95
2023-11-21T23:12:05.010Z,21.23
2023-11-21T23:14:33.998Z,17.77
2023-11-21T23:17:01.980Z,20.02
2023-11-21T23:19:33.211Z,19.83
2023-11-21T23:22:01.160Z,19.20
2023-11-21T23:24:29.056Z,18.38
2023-11-21T23:26:56.960Z,21.02
2023-11-21T23:29:24.948Z,23.17
2023-11-21T23:31:52.932Z,25.48
2023-11-21T23:34:20.849Z,24.33
2023-11-21T23:36:50.101Z,20.98
2023-11-21T23:39:18.152Z,18.40
2023-11-21T23:41:46.101Z,19.92
2023-11-21T23:44:14.023Z,20.33
2023-11-21T23:46:43.640Z,19.38
2023-11-21T23:49:11.983Z,20.73
2023-11-21T23:51:40.015Z,18.42
2023-11-21T23:54:09.310Z,19.50
2023-11-21T23:56:37.201Z,20.63
2023-11-21T23:59:05.231Z,17.92
